Time;durP1;ratioP1;P1;durP2;ratioP2;P2;SDS_P1;SDS_P2;PMS_P1;PMS_P2;Temp;Humidity;BMP_temperature;BMP_pressure;BME280_temperature;BME280_humidity;BME280_pressure;Samples;Min_cycle;Max_cycle;Signal;HPM_P1;HPM_P2
2022/09/16 00:01:12;;;;;;;2.85;1.45;;;11.70;99.90;;;;;;5048639;28;20025;-48
2022/09/16 00:03:38;;;;;;;3.28;1.60;;;11.70;99.90;;;;;;5044719;28;20363;-48
2022/09/16 00:06:04;;;;;;;4.88;1.77;;;11.70;99.90;;;;;;5040256;28;20024;-50
2022/09/16 00:08:30;;;;;;;10.00;2.10;;;11.60;99.90;;;;;;5048959;28;20410;-48
2022/09/16 00:11:00;;;;;;;3.38;1.48;;;11.60;99.90;;;;;;5048479;28;20025;-46
2022/09/16 00:13:26;;;;;;;3.20;1.65;;;11.60;99.90;;;;;;5047037;28;20025;-49
2022/09/16 00:15:51;;;;;;;5.13;2.15;;;11.60;99.90;;;;;;5048279;28;20075;-48
2022/09/16 00:18:19;;;;;;;4.57;1.75;;;11.60;99.90;;;;;;5047983;28;20028;-51
2022/09/16 00:20:46;;;;;;;4.32;1.50;;;11.60;99.90;;;;;;5047262;28;20036;-48
2022/09/16 00:23:11;;;;;;;2.40;1.20;;;11.60;99.90;;;;;;5047838;28;20025;-48
2022/09/16 00:25:37;;;;;;;6.63;1.85;;;11.60;99.90;;;;;;5048275;28;20444;-48
2022/09/16 00:28:03;;;;;;;3.65;1.42;;;11.50;99.90;;;;;;5048262;28;20438;-48
2022/09/16 00:30:28;;;;;;;5.40;1.52;;;11.50;99.90;;;;;;5048060;28;20453;-49
2022/09/16 00:32:54;;;;;;;2.95;1.48;;;11.50;99.90;;;;;;5045633;28;20021;-48
2022/09/16 00:35:20;;;;;;;5.97;2.13;;;11.50;99.90;;;;;;5038893;28;20352;-48
2022/09/16 00:37:45;;;;;;;5.35;1.70;;;11.50;99.90;;;;;;5046841;28;20156;-48
2022/09/16 00:40:11;;;;;;;5.57;1.80;;;11.50;99.90;;;;;;5048218;28;20104;-51
2022/09/16 00:42:39;;;;;;;6.68;2.30;;;11.50;99.90;;;;;;5047566;28;20025;-48
2022/09/16 00:45:15;;;;;;;3.15;1.67;;;11.40;99.90;;;;;;5047704;28;20020;-50
2022/09/16 00:48:00;;;;;;;3.25;1.63;;;11.40;99.90;;;;;;5048233;28;20033;-48
2022/09/16 00:50:37;;;;;;;3.55;1.70;;;11.40;99.90;;;;;;5047798;28;20044;-47
2022/09/16 00:53:06;;;;;;;7.18;1.85;;;11.40;99.90;;;;;;5047449;28;20025;-49
2022/09/16 00:55:35;;;;;;;8.93;2.35;;;11.40;99.90;;;;;;5048008;28;20048;-48
2022/09/16 00:58:26;;;;;;;5.75;1.70;;;11.40;99.90;;;;;;5048215;28;20066;-47
2022/09/16 01:00:51;;;;;;;;;;;11.40;99.90;;;;;;5051824;28;20119;-50
2022/09/16 01:03:18;;;;;;;6.55;1.63;;;11.30;99.90;;;;;;5048746;28;19987;-50
2022/09/16 01:05:45;;;;;;;4.15;1.30;;;11.30;99.90;;;;;;5043408;28;20075;-45
2022/09/16 01:08:11;;;;;;;6.93;1.85;;;11.30;99.90;;;;;;5051897;28;20025;-46
2022/09/16 01:10:40;;;;;;;13.40;1.73;;;11.30;99.90;;;;;;5051762;28;20119;-45
2022/09/16 01:13:09;;;;;;;4.22;1.58;;;11.30;99.90;;;;;;5051107;28;20021;-47
2022/09/16 01:15:58;;;;;;;10.52;1.40;;;11.30;99.90;;;;;;5051637;28;20049;-47
2022/09/16 01:18:34;;;;;;;4.45;1.60;;;11.30;99.90;;;;;;5051328;28;20648;-46
2022/09/16 01:21:27;;;;;;;4.70;1.50;;;11.20;99.90;;;;;;5051514;28;20024;-47
2022/09/16 01:24:14;;;;;;;5.40;1.88;;;11.30;99.90;;;;;;5051126;28;20543;-49
2022/09/16 01:27:01;;;;;;;6.82;2.33;;;11.20;99.90;;;;;;5051377;28;20313;-50
2022/09/16 01:29:51;;;;;;;4.30;1.55;;;11.20;99.90;;;;;;5051544;28;20539;-48
2022/09/16 01:32:46;;;;;;;5.80;1.45;;;11.20;99.90;;;;;;5051600;28;20033;-48
2022/09/16 01:35:31;;;;;;;6.60;1.50;;;11.20;99.90;;;;;;5041713;28;20018;-51
2022/09/16 01:38:14;;;;;;;7.97;1.85;;;11.20;99.90;;;;;;5051392;28;20055;-48
2022/09/16 01:41:03;;;;;;;9.85;1.85;;;11.20;99.90;;;;;;5051458;28;20082;-48
2022/09/16 01:43:40;;;;;;;5.45;1.40;;;11.30;99.90;;;;;;5050754;28;20498;-48
2022/09/16 01:46:17;;;;;;;3.08;1.58;;;11.30;99.90;;;;;;5051280;28;20017;-48
2022/09/16 01:48:56;;;;;;;4.68;1.98;;;11.40;99.90;;;;;;5050878;28;20037;-47
2022/09/16 01:51:51;;;;;;;5.82;1.88;;;11.40;99.90;;;;;;5050884;28;20029;-48
2022/09/16 01:54:33;;;;;;;8.27;1.65;;;11.40;99.90;;;;;;5050767;28;20470;-50
2022/09/16 01:57:04;;;;;;;6.55;1.60;;;11.50;99.90;;;;;;5051364;28;20040;-48
2022/09/16 01:59:40;;;;;;;4.65;1.55;;;11.50;99.90;;;;;;5051106;28;20029;-49
2022/09/16 02:02:09;;;;;;;7.85;1.63;;;11.50;99.90;;;;;;5049589;28;20076;-48
2022/09/16 02:04:43;;;;;;;8.90;1.58;;;11.60;99.90;;;;;;5038555;28;20052;-48
2022/09/16 02:07:11;;;;;;;7.03;2.42;;;11.60;99.90;;;;;;5042382;28;20032;-50
2022/09/16 02:09:42;;;;;;;4.75;1.83;;;11.60;99.90;;;;;;5050800;28;20021;-47
2022/09/16 02:12:14;;;;;;;7.40;1.38;;;11.60;99.90;;;;;;5048826;28;20029;-49
2022/09/16 02:14:42;;;;;;;8.40;1.67;;;11.60;99.90;;;;;;5050268;28;20029;-48
2022/09/16 02:17:14;;;;;;;4.43;1.42;;;11.60;99.90;;;;;;5043653;28;20016;-51
2022/09/16 02:19:48;;;;;;;6.50;1.27;;;11.60;99.90;;;;;;5044499;28;20029;-49
2022/09/16 02:22:21;;;;;;;4.40;1.55;;;11.60;99.90;;;;;;5050757;28;20036;-48
2022/09/16 02:24:47;;;;;;;4.32;1.38;;;11.60;99.90;;;;;;5049498;28;20031;-50
2022/09/16 02:27:16;;;;;;;9.32;1.52;;;11.60;99.90;;;;;;5050778;28;20112;-48
2022/09/16 02:29:54;;;;;;;4.38;1.42;;;11.60;99.90;;;;;;5050759;28;20104;-47
2022/09/16 02:32:23;;;;;;;7.72;2.40;;;11.50;99.90;;;;;;5050407;28;20060;-50
2022/09/16 02:34:50;;;;;;;5.88;2.17;;;11.50;99.90;;;;;;5050259;28;20021;-46
2022/09/16 02:37:54;;;;;;;3.83;1.35;;;11.40;99.90;;;;;;5050860;28;20025;-49
2022/09/16 02:40:26;;;;;;;5.60;1.80;;;11.40;99.90;;;;;;5050764;28;20056;-48
2022/09/16 02:42:52;;;;;;;9.68;2.10;;;11.40;99.90;;;;;;5050115;28;20082;-49
2022/09/16 02:45:22;;;;;;;11.43;2.58;;;11.40;99.90;;;;;;5036097;28;20033;-47
2022/09/16 02:48:13;;;;;;;5.25;1.83;;;11.40;99.90;;;;;;5037634;28;20025;-47
2022/09/16 02:50:46;;;;;;;5.82;1.67;;;11.30;99.90;;;;;;5010043;28;20030;-47
2022/09/16 02:53:44;;;;;;;4.95;1.63;;;11.30;99.90;;;;;;5009959;28;20491;-49
2022/09/16 02:56:21;;;;;;;7.65;1.63;;;11.30;99.90;;;;;;5020068;28;20022;-47
2022/09/16 02:58:47;;;;;;;5.55;1.73;;;11.20;99.90;;;;;;5018674;28;20053;-48
2022/09/16 03:01:13;;;;;;;6.32;1.83;;;11.20;99.90;;;;;;5027470;28;20095;-47
2022/09/16 03:03:39;;;;;;;9.52;1.73;;;11.20;99.90;;;;;;5027266;28;20071;-49
2022/09/16 03:06:04;;;;;;;3.65;1.17;;;11.20;99.90;;;;;;5038878;28;20028;-48
2022/09/16 03:08:31;;;;;;;2.88;1.63;;;11.10;99.90;;;;;;5031726;28;20030;-47
2022/09/16 03:11:15;;;;;;;5.00;1.48;;;11.10;99.90;;;;;;5023362;28;20022;-46
2022/09/16 03:14:07;;;;;;;4.97;1.67;;;11.10;99.90;;;;;;5030654;28;20472;-47
2022/09/16 03:16:45;;;;;;;8.95;1.70;;;11.00;99.90;;;;;;5018497;28;20047;-48
2022/09/16 03:19:25;;;;;;;5.75;1.65;;;11.00;99.90;;;;;;5029524;28;20030;-46
2022/09/16 03:21:55;;;;;;;5.70;1.80;;;11.00;99.90;;;;;;5029813;28;20402;-49
2022/09/16 03:24:57;;;;;;;5.95;1.50;;;11.00;99.90;;;;;;5027007;28;20410;-49
2022/09/16 03:27:32;;;;;;;9.02;1.75;;;11.00;99.90;;;;;;5019532;28;20040;-51
2022/09/16 03:30:04;;;;;;;8.57;2.03;;;10.90;99.90;;;;;;5036951;28;20481;-47
2022/09/16 03:32:37;;;;;;;5.43;1.55;;;10.90;99.90;;;;;;5033987;28;20027;-50
2022/09/16 03:35:06;;;;;;;6.25;2.28;;;10.90;99.90;;;;;;5049124;28;20032;-48
2022/09/16 03:37:34;;;;;;;5.25;2.42;;;10.80;99.90;;;;;;5049492;28;20032;-49
2022/09/16 03:40:06;;;;;;;7.00;2.10;;;10.80;99.90;;;;;;5049580;28;20451;-48
2022/09/16 03:42:32;;;;;;;7.93;1.73;;;10.80;99.90;;;;;;5048804;28;20051;-47
2022/09/16 03:44:58;;;;;;;8.30;1.88;;;10.80;99.90;;;;;;5049368;28;20534;-48
2022/09/16 03:47:23;;;;;;;5.57;1.73;;;10.80;99.90;;;;;;5049637;28;20021;-48
2022/09/16 03:49:49;;;;;;;5.43;2.00;;;10.80;99.90;;;;;;5049057;28;20029;-47
2022/09/16 03:52:17;;;;;;;5.65;1.52;;;10.70;99.90;;;;;;5048976;28;20025;-48
2022/09/16 03:54:43;;;;;;;6.30;1.80;;;10.70;99.90;;;;;;5048773;28;20017;-47
2022/09/16 03:57:09;;;;;;;6.50;1.85;;;10.80;99.90;;;;;;5049321;28;20040;-48
2022/09/16 03:59:34;;;;;;;4.20;1.80;;;10.80;99.90;;;;;;5042211;28;20355;-50
2022/09/16 04:02:00;;;;;;;6.60;1.90;;;10.80;99.90;;;;;;5040584;28;20025;-49
2022/09/16 04:04:25;;;;;;;8.05;1.83;;;10.80;99.90;;;;;;5040720;28;20377;-47
2022/09/16 04:06:51;;;;;;;7.30;2.20;;;10.80;99.90;;;;;;5040700;28;20363;-47
2022/09/16 04:09:16;;;;;;;7.38;1.73;;;10.80;99.90;;;;;;5047389;28;20098;-49
2022/09/16 04:11:42;;;;;;;8.02;2.00;;;10.80;99.90;;;;;;5048635;28;20029;-48
2022/09/16 04:14:07;;;;;;;6.35;1.77;;;10.90;99.90;;;;;;5048244;28;20032;-48
2022/09/16 04:16:33;;;;;;;11.63;2.53;;;10.90;99.90;;;;;;5048879;28;20398;-48
2022/09/16 04:18:59;;;;;;;6.72;1.73;;;10.90;99.90;;;;;;5048603;28;20037;-47
2022/09/16 04:21:25;;;;;;;10.20;2.95;;;10.90;99.90;;;;;;5049097;28;20029;-48
2022/09/16 04:23:50;;;;;;;12.40;1.98;;;11.00;99.90;;;;;;5048423;28;20025;-49
2022/09/16 04:26:16;;;;;;;10.65;2.20;;;11.00;99.90;;;;;;5048918;28;20415;-47
2022/09/16 04:28:42;;;;;;;6.57;2.03;;;10.90;99.90;;;;;;5048602;28;20056;-50
2022/09/16 04:31:11;;;;;;;6.90;2.13;;;10.90;99.90;;;;;;5048548;28;20029;-49
2022/09/16 04:33:37;;;;;;;6.60;2.00;;;10.90;99.90;;;;;;5046224;28;20048;-48
2022/09/16 04:36:08;;;;;;;8.13;2.08;;;10.90;99.90;;;;;;5043083;28;20022;-48
2022/09/16 04:38:35;;;;;;;9.20;2.38;;;10.90;99.90;;;;;;5055107;28;20068;-47
2022/09/16 04:41:05;;;;;;;11.02;2.20;;;10.90;99.90;;;;;;5055693;28;20052;-48
2022/09/16 04:43:31;;;;;;;5.93;2.45;;;10.90;99.90;;;;;;5048452;28;20022;-47
2022/09/16 04:45:56;;;;;;;10.75;2.63;;;10.90;99.90;;;;;;5051265;28;20051;-48
2022/09/16 04:48:22;;;;;;;9.38;1.92;;;10.90;99.90;;;;;;5055735;28;20490;-49
2022/09/16 04:50:47;;;;;;;4.32;1.92;;;10.90;99.90;;;;;;5054592;28;20025;-48
2022/09/16 04:53:13;;;;;;;9.27;2.40;;;10.90;99.90;;;;;;5054360;28;20386;-47
2022/09/16 04:55:38;;;;;;;10.60;2.45;;;10.90;99.90;;;;;;5054841;28;20033;-47
2022/09/16 04:58:04;;;;;;;7.65;2.42;;;10.90;99.90;;;;;;5055151;28;20096;-47
2022/09/16 05:00:29;;;;;;;4.88;2.03;;;10.90;99.90;;;;;;5050145;28;20372;-48
2022/09/16 05:02:55;;;;;;;7.00;2.17;;;10.90;99.90;;;;;;5046369;28;20040;-49
2022/09/16 05:05:20;;;;;;;6.15;1.95;;;10.90;99.90;;;;;;5054972;28;20415;-48
2022/09/16 05:07:46;;;;;;;5.65;2.15;;;11.00;99.90;;;;;;5053932;28;20028;-50
2022/09/16 05:10:12;;;;;;;9.50;2.83;;;11.00;99.90;;;;;;5053374;28;20029;-47
2022/09/16 05:12:37;;;;;;;6.05;2.83;;;11.10;99.90;;;;;;5054644;28;20025;-49
2022/09/16 05:15:03;;;;;;;6.70;2.65;;;11.10;99.90;;;;;;5054950;28;20020;-49
2022/09/16 05:17:30;;;;;;;9.75;2.50;;;11.10;99.90;;;;;;5049708;28;20139;-47
2022/09/16 05:19:56;;;;;;;6.80;2.50;;;11.10;99.90;;;;;;5044888;28;20032;-48
2022/09/16 05:22:21;;;;;;;7.47;2.80;;;11.10;99.90;;;;;;5054589;28;20029;-49
2022/09/16 05:24:47;;;;;;;12.05;3.40;;;11.10;99.90;;;;;;5053705;28;20474;-48
2022/09/16 05:27:13;;;;;;;5.55;2.42;;;11.10;99.90;;;;;;5054756;28;20024;-48
2022/09/16 05:29:39;;;;;;;10.10;2.70;;;11.10;99.90;;;;;;5054642;28;20513;-48
2022/09/16 05:32:04;;;;;;;7.68;3.03;;;11.10;99.90;;;;;;5053121;28;20017;-48
2022/09/16 05:34:30;;;;;;;7.40;2.63;;;11.10;99.90;;;;;;5046282;28;20029;-47
2022/09/16 05:36:56;;;;;;;6.60;2.10;;;11.10;99.90;;;;;;5050747;28;20090;-47
2022/09/16 05:39:23;;;;;;;11.43;2.60;;;11.20;99.90;;;;;;5053703;28;20115;-48
2022/09/16 05:41:49;;;;;;;3.45;1.85;;;11.30;99.90;;;;;;5055044;28;20021;-48
2022/09/16 05:44:15;;;;;;;6.32;2.50;;;11.30;99.90;;;;;;5053151;28;20033;-47
2022/09/16 05:46:41;;;;;;;7.25;2.72;;;11.40;99.90;;;;;;5051548;28;20032;-48
2022/09/16 05:49:07;;;;;;;9.70;2.38;;;11.50;99.90;;;;;;5051725;28;20470;-47
2022/09/16 05:51:33;;;;;;;6.80;1.90;;;11.60;99.90;;;;;;5050752;28;20036;-48
2022/09/16 05:53:59;;;;;;;6.90;2.00;;;11.70;99.90;;;;;;5049884;28;20029;-47
2022/09/16 05:56:26;;;;;;;6.15;2.35;;;11.70;99.90;;;;;;5050510;28;20017;-48
2022/09/16 05:58:53;;;;;;;5.97;1.95;;;11.80;99.90;;;;;;5047109;28;20054;-48
2022/09/16 06:01:22;;;;;;;12.63;2.10;;;11.80;99.90;;;;;;5040288;28;20037;-48
2022/09/16 06:03:49;;;;;;;7.28;2.00;;;11.90;99.90;;;;;;5048110;28;20413;-47
2022/09/16 06:06:29;;;;;;;6.28;2.25;;;11.90;99.90;;;;;;5039701;28;20518;-47
2022/09/16 06:08:58;;;;;;;9.53;2.23;;;11.90;99.90;;;;;;5045851;28;20052;-49
2022/09/16 06:11:25;;;;;;;8.20;2.20;;;11.90;99.90;;;;;;5024252;28;20288;-48
2022/09/16 06:13:55;;;;;;;10.88;2.22;;;12.00;99.90;;;;;;5019802;28;20483;-48
2022/09/16 06:16:21;;;;;;;7.40;1.90;;;12.00;99.90;;;;;;5023792;28;20036;-48
2022/09/16 06:18:47;;;;;;;4.75;2.40;;;12.00;99.90;;;;;;5045540;28;20079;-49
2022/09/16 06:21:13;;;;;;;4.45;2.05;;;12.00;99.90;;;;;;5043204;28;20022;-49
2022/09/16 06:23:39;;;;;;;6.05;2.50;;;12.10;99.90;;;;;;5042246;28;20511;-47
2022/09/16 06:26:17;;;;;;;4.22;2.00;;;12.10;99.90;;;;;;5050539;28;20445;-50
2022/09/16 06:28:44;;;;;;;8.35;2.08;;;12.10;99.90;;;;;;5033623;28;20017;-48
2022/09/16 06:31:12;;;;;;;8.02;2.10;;;12.00;99.90;;;;;;5046368;28;20538;-47
2022/09/16 06:33:38;;;;;;;8.63;2.35;;;12.00;99.90;;;;;;5035746;28;20064;-47
2022/09/16 06:36:15;;;;;;;8.25;2.10;;;12.00;99.90;;;;;;5047873;28;20083;-47
2022/09/16 06:38:41;;;;;;;5.50;2.47;;;12.10;99.90;;;;;;5035923;28;20071;-48
2022/09/16 06:41:08;;;;;;;8.30;1.90;;;12.10;99.90;;;;;;5047929;28;20029;-47
2022/09/16 06:43:34;;;;;;;7.28;1.63;;;12.20;99.90;;;;;;5039308;28;20299;-47
2022/09/16 06:46:03;;;;;;;5.35;1.88;;;12.30;99.90;;;;;;5044894;28;20067;-48
2022/09/16 06:48:32;;;;;;;6.80;2.03;;;12.30;99.90;;;;;;5044700;28;20021;-47
2022/09/16 06:51:04;;;;;;;9.10;1.60;;;12.30;99.90;;;;;;5045495;28;20433;-47
2022/09/16 06:53:30;;;;;;;4.57;1.35;;;12.40;99.90;;;;;;5041730;28;20044;-47
2022/09/16 06:56:00;;;;;;;6.90;1.65;;;12.50;99.90;;;;;;5045520;28;20052;-49
2022/09/16 06:58:28;;;;;;;5.78;1.73;;;12.70;99.90;;;;;;5042965;28;20087;-51
2022/09/16 07:00:54;;;;;;;9.63;1.50;;;12.70;99.90;;;;;;5045662;28;20557;-48
2022/09/16 07:03:19;;;;;;;6.18;1.27;;;12.70;99.90;;;;;;5041086;28;20033;-50
2022/09/16 07:05:55;;;;;;;7.57;1.65;;;12.60;99.90;;;;;;5041338;28;20045;-51
2022/09/16 07:08:21;;;;;;;5.28;1.60;;;12.60;99.90;;;;;;5042646;28;20025;-48
2022/09/16 07:10:58;;;;;;;6.78;2.60;;;12.70;99.90;;;;;;5041168;28;20547;-48
2022/09/16 07:13:24;;;;;;;8.70;2.90;;;12.90;99.90;;;;;;5041750;28;20111;-48
2022/09/16 07:15:49;;;;;;;5.90;2.15;;;12.90;99.90;;;;;;5041015;28;20043;-50
2022/09/16 07:18:15;;;;;;;8.15;2.15;;;13.00;99.90;;;;;;5042630;28;20044;-55
2022/09/16 07:20:40;;;;;;;5.35;2.17;;;12.90;99.90;;;;;;5040935;28;20222;-56
2022/09/16 07:23:06;;;;;;;8.70;2.00;;;12.90;99.90;;;;;;5045434;28;20025;-56
2022/09/16 07:25:31;;;;;;;5.50;2.33;;;12.90;99.90;;;;;;5041492;28;20021;-59
2022/09/16 07:27:57;;;;;;;6.57;2.45;;;13.00;99.90;;;;;;5050054;28;20505;-56
2022/09/16 07:30:22;;;;;;;6.97;2.83;;;13.00;99.90;;;;;;5041951;28;20057;-56
2022/09/16 07:32:48;;;;;;;6.55;3.17;;;13.10;99.90;;;;;;5043868;28;20028;-55
2022/09/16 07:35:13;;;;;;;33.15;17.77;;;13.10;99.90;;;;;;5049781;28;20021;-56
2022/09/16 07:37:39;;;;;;;32.58;20.35;;;13.10;99.90;;;;;;5049190;28;20071;-56
2022/09/16 07:40:05;;;;;;;7.38;3.30;;;13.20;99.90;;;;;;5037957;28;20088;-56
2022/09/16 07:42:30;;;;;;;6.28;2.92;;;13.30;99.90;;;;;;5048583;28;20513;-56
2022/09/16 07:44:56;;;;;;;9.25;3.33;;;13.50;99.90;;;;;;5049223;28;20027;-56
2022/09/16 07:47:22;;;;;;;6.80;3.22;;;13.50;99.90;;;;;;5049212;28;20017;-56
2022/09/16 07:49:47;;;;;;;8.43;3.15;;;13.50;99.90;;;;;;5048614;28;20105;-56
2022/09/16 07:52:15;;;;;;;10.70;3.10;;;13.70;99.90;;;;;;5015666;28;20061;-56
2022/09/16 07:54:40;;;;;;;6.78;2.78;;;13.50;99.90;;;;;;5008124;28;20388;-56
2022/09/16 07:57:06;;;;;;;7.35;2.60;;;13.60;99.90;;;;;;5007863;28;20030;-56
2022/09/16 07:59:31;;;;;;;6.85;3.22;;;13.80;99.90;;;;;;5006907;28;20033;-56
2022/09/16 08:01:57;;;;;;;5.03;3.38;;;14.00;99.90;;;;;;5008301;28;20041;-56
2022/09/16 08:04:22;;;;;;;3.63;2.28;;;14.20;99.90;;;;;;5006742;28;20176;-57
2022/09/16 08:06:48;;;;;;;10.98;2.75;;;14.40;99.90;;;;;;5008324;28;20034;-57
2022/09/16 08:09:14;;;;;;;5.35;2.28;;;14.50;99.90;;;;;;5026638;28;20108;-57
2022/09/16 08:11:40;;;;;;;5.97;2.08;;;14.80;99.90;;;;;;5033457;28;20438;-57
2022/09/16 08:14:05;;;;;;;3.80;1.50;;;15.00;99.90;;;;;;5044698;28;20059;-57
2022/09/16 08:16:31;;;;;;;4.93;1.48;;;15.50;99.90;;;;;;5047274;28;20021;-57
2022/09/16 08:18:57;;;;;;;4.95;1.40;;;16.00;99.90;;;;;;5048058;28;20033;-57
2022/09/16 08:21:26;;;;;;;6.50;1.95;;;17.00;99.90;;;;;;5046517;28;20036;-57
2022/09/16 08:23:52;;;;;;;3.72;1.60;;;18.00;99.90;;;;;;5037343;28;20087;-57
2022/09/16 08:26:19;;;;;;;5.78;1.40;;;18.70;99.20;;;;;;5034447;28;20475;-57
2022/09/16 08:28:46;;;;;;;5.20;1.23;;;19.50;98.40;;;;;;5026398;28;20030;-58
2022/09/16 08:31:11;;;;;;;6.72;1.55;;;20.20;95.50;;;;;;5035196;28;20029;-57
2022/09/16 08:33:41;;;;;;;8.27;1.65;;;20.90;93.90;;;;;;5041041;28;20028;-57
2022/09/16 08:36:14;;;;;;;7.80;1.73;;;21.60;91.80;;;;;;5047745;28;20029;-57
2022/09/16 08:38:42;;;;;;;4.00;1.40;;;22.50;90.50;;;;;;5047420;28;20029;-57
2022/09/16 08:41:45;;;;;;;7.95;1.63;;;23.60;86.60;;;;;;5048039;28;20386;-57
2022/09/16 08:44:31;;;;;;;6.63;1.35;;;23.30;82.30;;;;;;5047081;28;20021;-57
2022/09/16 08:47:03;;;;;;;4.50;1.80;;;22.50;83.20;;;;;;5047762;28;20033;-57
2022/09/16 08:49:31;;;;;;;8.30;2.28;;;21.90;84.90;;;;;;5029142;28;20467;-57
2022/09/16 08:51:59;;;;;;;7.95;2.03;;;21.50;85.50;;;;;;5016557;28;20506;-57
2022/09/16 08:54:36;;;;;;;6.72;1.33;;;21.40;85.30;;;;;;5009654;28;20084;-57
2022/09/16 08:57:04;;;;;;;4.03;1.50;;;21.60;83.40;;;;;;5007984;28;20319;-57
2022/09/16 08:59:36;;;;;;;5.63;1.60;;;21.90;82.70;;;;;;5014373;28;20042;-58
2022/09/16 09:02:31;;;;;;;5.53;1.77;;;22.60;79.60;;;;;;5023979;28;20022;-56
2022/09/16 09:04:57;;;;;;;10.60;2.00;;;22.20;79.60;;;;;;5021531;28;20035;-56
2022/09/16 09:08:01;;;;;;;4.13;1.80;;;22.20;80.70;;;;;;5027321;28;20044;-56
2022/09/16 09:10:41;;;;;;;4.40;1.70;;;22.00;80.70;;;;;;5026777;28;20029;-55
2022/09/16 09:13:26;;;;;;;6.97;1.73;;;21.40;81.40;;;;;;5037087;28;20020;-57
2022/09/16 09:16:15;;;;;;;8.40;1.67;;;20.20;84.70;;;;;;5047435;28;20025;-58
2022/09/16 09:19:10;;;;;;;4.13;1.40;;;20.00;86.70;;;;;;5040574;28;20029;-56
2022/09/16 09:22:00;;;;;;;10.77;2.72;;;20.30;84.50;;;;;;5030363;28;20029;-55
2022/09/16 09:25:10;;;;;;;8.20;2.30;;;21.40;84.90;;;;;;5030546;28;20475;-56
2022/09/16 09:27:47;;;;;;;7.90;1.85;;;21.50;81.60;;;;;;5025599;28;20048;-56
2022/09/16 09:30:20;;;;;;;8.88;1.58;;;22.30;79.10;;;;;;5030661;28;20051;-56
2022/09/16 09:33:00;;;;;;;3.83;1.73;;;22.80;74.70;;;;;;5037775;28;20064;-55
2022/09/16 09:35:51;;;;;;;8.00;1.80;;;22.70;76.70;;;;;;5011334;28;20045;-56
2022/09/16 09:38:52;;;;;;;6.40;2.47;;;22.50;74.70;;;;;;5009334;28;20180;-55
2022/09/16 09:41:52;;;;;;;8.20;1.92;;;21.70;74.90;;;;;;5011092;28;20477;-56
2022/09/16 09:44:35;;;;;;;7.00;1.73;;;21.80;77.50;;;;;;5015949;28;20034;-57
2022/09/16 09:47:07;;;;;;;7.07;1.73;;;21.60;75.90;;;;;;5041898;28;20039;-57
2022/09/16 09:49:36;;;;;;;5.25;1.60;;;20.80;78.80;;;;;;5031625;28;20106;-57
2022/09/16 09:52:11;;;;;;;4.90;1.75;;;20.10;79.30;;;;;;5031471;28;20029;-53
2022/09/16 09:54:37;;;;;;;5.03;1.65;;;19.70;80.70;;;;;;5035359;28;20186;-56
2022/09/16 09:57:19;;;;;;;13.35;1.95;;;18.80;83.60;;;;;;5043158;28;20021;-56
2022/09/16 09:59:51;;;;;;;10.02;2.15;;;18.20;85.60;;;;;;5051944;28;20387;-57
2022/09/16 10:02:19;;;;;;;7.35;1.73;;;19.40;87.20;;;;;;5051580;28;20053;-57
2022/09/16 10:04:45;;;;;;;4.35;1.30;;;19.70;82.50;;;;;;5049728;28;20025;-57
2022/09/16 10:07:14;;;;;;;9.00;1.40;;;19.60;80.20;;;;;;5049454;28;20044;-58
2022/09/16 10:09:52;;;;;;;3.70;1.40;;;20.80;80.70;;;;;;5039194;28;20083;-49
2022/09/16 10:12:28;;;;;;;5.93;1.55;;;21.10;76.30;;;;;;5050127;28;20032;-53
2022/09/16 10:14:54;;;;;;;6.20;1.70;;;21.60;75.30;;;;;;5051191;28;20082;-53
2022/09/16 10:17:19;;;;;;;6.68;3.65;;;22.30;75.50;;;;;;5051514;28;20482;-54
2022/09/16 10:20:19;;;;;;;17.40;8.90;;;23.10;73.40;;;;;;5050880;28;20052;-54
2022/09/16 10:22:57;;;;;;;3.67;1.10;;;24.20;69.90;;;;;;5046770;28;20053;-54
2022/09/16 10:25:25;;;;;;;5.50;1.50;;;25.30;68.40;;;;;;5030412;28;20029;-54
2022/09/16 10:28:00;;;;;;;3.53;1.40;;;24.90;65.40;;;;;;5030847;28;20067;-54
2022/09/16 10:30:27;;;;;;;5.20;1.40;;;25.50;62.80;;;;;;5030594;28;20029;-54
2022/09/16 10:33:00;;;;;;;3.20;1.20;;;24.90;65.50;;;;;;5029941;28;20068;-52
2022/09/16 10:35:28;;;;;;;4.07;1.58;;;24.30;65.60;;;;;;5031110;28;20034;-49
2022/09/16 10:38:03;;;;;;;6.95;1.63;;;23.00;67.30;;;;;;5030576;28;20034;-53
2022/09/16 10:40:29;;;;;;;3.83;1.35;;;21.70;70.30;;;;;;5030098;28;20376;-46
2022/09/16 10:43:01;;;;;;;8.30;1.73;;;21.30;72.80;;;;;;5028880;28;20028;-45
2022/09/16 10:45:29;;;;;;;7.55;1.98;;;22.90;73.30;;;;;;5030938;28;20049;-48
2022/09/16 10:48:03;;;;;;;5.10;1.50;;;23.70;68.00;;;;;;5030884;28;20109;-46
2022/09/16 10:50:29;;;;;;;6.00;2.08;;;24.40;65.40;;;;;;5030572;28;20079;-46
2022/09/16 10:52:54;;;;;;;4.68;1.50;;;25.40;64.40;;;;;;5030367;28;20029;-46
2022/09/16 10:55:25;;;;;;;6.10;1.25;;;23.90;64.30;;;;;;5030501;28;20065;-47
2022/09/16 10:57:51;;;;;;;;;;;22.70;66.20;;;;;;5019023;28;20388;-46
2022/09/16 11:00:23;;;;;;;6.03;1.08;;;22.20;69.10;;;;;;5010800;28;19910;-46
2022/09/16 11:03:46;;;;;;;8.23;1.65;;;23.00;69.50;;;;;;5010134;28;20030;-47
2022/09/16 11:06:46;;;;;;;2.85;1.20;;;24.60;66.60;;;;;;5009836;28;20499;-46
2022/09/16 11:09:27;;;;;;;10.60;1.52;;;25.90;66.70;;;;;;5009290;28;20400;-47
2022/09/16 11:11:58;;;;;;;4.35;1.33;;;24.80;62.30;;;;;;5031597;28;20312;-46
2022/09/16 11:14:26;;;;;;;5.95;1.77;;;24.10;62.60;;;;;;5021917;28;20029;-46
2022/09/16 11:17:19;;;;;;;6.13;1.33;;;22.80;64.00;;;;;;5010241;28;20022;-45
2022/09/16 11:20:01;;;;;;;8.88;4.43;;;23.10;64.10;;;;;;5009993;28;20467;-45
2022/09/16 11:22:50;;;;;;;6.90;3.42;;;22.90;63.80;;;;;;5009506;28;20037;-45
2022/09/16 11:25:18;;;;;;;4.22;1.25;;;23.90;65.10;;;;;;5018813;28;20033;-47
2022/09/16 11:28:10;;;;;;;5.28;1.15;;;24.80;63.40;;;;;;5027743;28;20052;-45
2022/09/16 11:30:46;;;;;;;6.95;1.50;;;25.30;62.40;;;;;;5028868;28;20368;-47
2022/09/16 11:33:24;;;;;;;5.47;0.90;;;26.10;61.80;;;;;;5028652;28;20029;-45
2022/09/16 11:36:36;;;;;;;7.82;2.08;;;26.80;60.00;;;;;;5028766;28;20306;-44
2022/09/16 11:39:18;;;;;;;5.97;1.70;;;27.00;57.90;;;;;;5042400;28;20036;-47
2022/09/16 11:42:15;;;;;;;4.82;1.25;;;26.80;58.80;;;;;;5049483;28;20031;-46
2022/09/16 11:44:43;;;;;;;5.60;1.13;;;27.80;59.40;;;;;;5038220;28;20080;-45
2022/09/16 11:47:24;;;;;;;7.82;1.73;;;28.40;58.00;;;;;;5016765;28;20032;-46
2022/09/16 11:50:02;;;;;;;4.57;1.70;;;28.20;58.10;;;;;;5028994;28;20030;-43
2022/09/16 11:52:48;;;;;;;4.55;1.38;;;27.10;58.20;;;;;;5028363;28;20022;-47
2022/09/16 11:55:51;;;;;;;4.55;1.38;;;26.90;55.50;;;;;;5027037;28;20125;-44
2022/09/16 11:58:42;;;;;;;8.27;2.55;;;24.80;58.20;;;;;;5028913;28;20132;-45
2022/09/16 12:01:35;;;;;;;6.72;3.05;;;22.90;62.70;;;;;;5036984;28;20535;-46
2022/09/16 12:04:19;;;;;;;3.35;1.15;;;22.60;64.40;;;;;;5044053;28;20069;-48
2022/09/16 12:07:00;;;;;;;6.07;1.58;;;23.30;63.80;;;;;;5048609;28;20032;-46
2022/09/16 12:09:45;;;;;;;3.42;1.00;;;23.60;63.70;;;;;;5048201;28;20025;-44
2022/09/16 12:12:16;;;;;;;4.07;1.08;;;24.00;64.40;;;;;;5044766;28;20025;-44
2022/09/16 12:14:44;;;;;;;;;;;23.60;62.50;;;;;;5042740;28;20025;-46
2022/09/16 12:17:26;;;;;;;4.07;1.10;;;23.60;61.20;;;;;;5048214;28;19904;-44
2022/09/16 12:19:56;;;;;;;8.05;1.20;;;23.40;60.30;;;;;;5048332;28;20055;-46
2022/09/16 12:22:42;;;;;;;5.65;1.60;;;23.40;59.20;;;;;;5047919;28;20067;-45
2022/09/16 12:25:34;;;;;;;4.55;1.33;;;23.70;59.70;;;;;;5047114;28;20086;-46
2022/09/16 12:28:06;;;;;;;9.43;1.52;;;23.60;61.10;;;;;;5048669;28;20029;-45
2022/09/16 12:30:43;;;;;;;8.93;1.58;;;23.30;59.70;;;;;;5048611;28;20108;-47
2022/09/16 12:33:24;;;;;;;3.60;1.15;;;23.20;61.10;;;;;;5048763;28;20108;-48
2022/09/16 12:36:01;;;;;;;8.60;1.90;;;22.90;60.30;;;;;;5048568;28;20489;-47
2022/09/16 12:38:26;;;;;;;7.95;1.65;;;22.60;61.60;;;;;;5048583;28;20430;-45
2022/09/16 12:41:17;;;;;;;8.48;3.08;;;22.70;61.60;;;;;;5042777;28;20785;-46
2022/09/16 12:44:00;;;;;;;8.43;1.83;;;22.80;63.20;;;;;;5030703;28;20175;-44
2022/09/16 12:46:47;;;;;;;11.27;1.83;;;22.30;61.40;;;;;;5028969;28;20030;-45
2022/09/16 12:49:53;;;;;;;7.30;1.67;;;22.20;60.70;;;;;;5028464;28;20036;-44
2022/09/16 12:52:30;;;;;;;11.60;1.92;;;21.80;61.30;;;;;;5028665;28;20025;-46
2022/09/16 12:55:22;;;;;;;8.05;1.50;;;21.50;62.70;;;;;;5028742;28;20053;-45
2022/09/16 12:57:50;;;;;;;5.15;1.50;;;21.10;63.10;;;;;;5032449;28;20395;-45
2022/09/16 13:00:53;;;;;;;5.45;1.60;;;21.30;62.60;;;;;;5032387;28;20026;-47
2022/09/16 13:03:23;;;;;;;3.88;1.20;;;21.30;65.30;;;;;;5032109;28;20053;-48
2022/09/16 13:05:51;;;;;;;9.93;1.45;;;21.90;63.60;;;;;;5032447;28;20029;-47
2022/09/16 13:08:23;;;;;;;6.13;1.88;;;22.00;61.70;;;;;;5032548;28;20105;-45
2022/09/16 13:10:59;;;;;;;7.45;1.55;;;21.90;59.50;;;;;;5026559;28;20451;-44
2022/09/16 13:13:41;;;;;;;8.13;1.40;;;21.90;59.80;;;;;;5043337;28;20079;-45
2022/09/16 13:16:08;;;;;;;6.70;1.75;;;22.00;61.60;;;;;;5052046;28;20096;-47